createdAt,value
2023-04-07T00:01:07.977Z,48.13
2023-04-07T00:03:41.613Z,48.13
2023-04-07T00:06:14.176Z,48.22
2023-04-07T00:08:46.078Z,48.25
2023-04-07T00:11:18.217Z,48.57
2023-04-07T00:13:50.276Z,48.60
2023-04-07T00:16:23.136Z,48.65
2023-04-07T00:18:55.261Z,48.66
2023-04-07T00:21:27.313Z,48.64
2023-04-07T00:23:59.400Z,48.82
2023-04-07T00:26:33.119Z,48.87
2023-04-07T00:29:05.130Z,48.98
2023-04-07T00:31:37.155Z,49.01
2023-04-07T00:34:09.266Z,49.19
2023-04-07T00:36:41.293Z,49.37
2023-04-07T00:39:13.325Z,49.21
2023-04-07T00:41:45.853Z,49.40
2023-04-07T00:44:17.984Z,49.48
2023-04-07T00:46:50.186Z,49.64
2023-04-07T00:49:22.314Z,49.80
2023-04-07T00:51:56.934Z,49.69
2023-04-07T00:54:30.602Z,49.82
2023-04-07T00:57:02.844Z,49.86
2023-04-07T00:59:35.181Z,49.90
2023-04-07T01:02:19.202Z,50.16
2023-04-07T01:04:54.434Z,50.08
2023-04-07T01:07:29.546Z,50.19
2023-04-07T01:10:08.098Z,50.31
2023-04-07T01:12:48.151Z,50.39
2023-04-07T01:15:23.846Z,50.41
2023-04-07T01:18:08.957Z,50.52
2023-04-07T01:20:43.374Z,50.52
2023-04-07T01:23:18.554Z,50.59
2023-04-07T01:25:56.260Z,50.65
2023-04-07T01:28:37.008Z,50.93
2023-04-07T01:31:11.681Z,51.08
2023-04-07T01:33:46.256Z,51.22
2023-04-07T01:36:19.461Z,51.24
2023-04-07T01:38:55.406Z,51.16
2023-04-07T01:41:28.410Z,51.33
2023-04-07T01:44:02.278Z,51.57
2023-04-07T01:46:35.121Z,51.71
2023-04-07T01:49:07.997Z,51.74
2023-04-07T01:51:41.316Z,51.78
2023-04-07T01:54:13.460Z,51.69
2023-04-07T01:56:46.252Z,51.94
2023-04-07T01:59:18.602Z,51.95
2023-04-07T02:01:51.202Z,52.14
2023-04-07T02:04:37.344Z,51.99
2023-04-07T02:07:12.858Z,52.09
2023-04-07T02:09:48.414Z,52.14
2023-04-07T02:12:21.412Z,52.16
2023-04-07T02:14:57.012Z,52.44
2023-04-07T02:17:30.328Z,52.54
2023-04-07T02:20:03.557Z,52.63
2023-04-07T02:22:36.009Z,52.75
2023-04-07T02:25:25.706Z,53.07
2023-04-07T02:28:00.496Z,53.24
2023-04-07T02:30:32.486Z,53.56
2023-04-07T02:33:04.630Z,53.62
2023-04-07T02:35:36.752Z,53.73
2023-04-07T02:38:08.856Z,53.81
2023-04-07T02:40:41.136Z,53.63
2023-04-07T02:43:13.429Z,53.56
2023-04-07T02:45:45.942Z,53.68
2023-04-07T02:48:18.298Z,53.70
2023-04-07T02:50:50.639Z,53.64
2023-04-07T02:53:22.677Z,53.96
2023-04-07T02:55:54.687Z,53.71
2023-04-07T02:58:26.850Z,53.56
2023-04-07T03:00:59.109Z,53.76
2023-04-07T03:03:33.080Z,53.58
2023-04-07T03:06:12.759Z,53.71
2023-04-07T03:08:46.590Z,53.54
2023-04-07T03:11:18.695Z,53.44
2023-04-07T03:13:52.538Z,53.43
2023-04-07T03:16:24.857Z,53.48
2023-04-07T03:18:58.643Z,53.44
2023-04-07T03:21:32.051Z,53.22
2023-04-07T03:24:04.586Z,53.22
2023-04-07T03:26:37.552Z,52.91
2023-04-07T03:29:10.313Z,52.89
2023-04-07T03:31:42.408Z,51.60
2023-04-07T03:34:15.565Z,52.14
2023-04-07T03:36:47.899Z,52.27
2023-04-07T03:39:20.495Z,52.01
2023-04-07T03:41:54.207Z,51.84
2023-04-07T03:44:27.099Z,51.76
2023-04-07T03:46:59.914Z,51.43
2023-04-07T03:49:32.642Z,51.51
2023-04-07T03:52:06.143Z,51.48
2023-04-07T03:54:38.069Z,50.33
2023-04-07T03:57:10.982Z,50.79
2023-04-07T03:59:44.987Z,50.87
2023-04-07T04:02:17.207Z,50.65
2023-04-07T04:04:50.321Z,50.61
2023-04-07T04:07:23.296Z,50.54
2023-04-07T04:09:57.326Z,50.29
2023-04-07T04:12:29.550Z,50.12
2023-04-07T04:15:06.801Z,49.90
2023-04-07T04:17:39.369Z,49.59
2023-04-07T04:20:13.169Z,49.22
2023-04-07T04:22:46.831Z,49.03
2023-04-07T04:25:19.369Z,48.90
2023-04-07T04:27:53.628Z,48.64
2023-04-07T04:30:27.662Z,48.33
2023-04-07T04:33:02.221Z,48.49
2023-04-07T04:35:39.674Z,48.16
2023-04-07T04:38:12.708Z,47.97
2023-04-07T04:40:46.511Z,47.56
2023-04-07T04:43:19.813Z,47.26
2023-04-07T04:45:52.320Z,47.25
2023-04-07T04:48:26.085Z,46.85
2023-04-07T04:50:58.288Z,47.07
2023-04-07T04:53:30.970Z,46.87
2023-04-07T04:56:05.882Z,46.48
2023-04-07T04:58:42.426Z,46.11
2023-04-07T05:01:16.055Z,45.73
2023-04-07T05:03:50.160Z,45.82
2023-04-07T05:06:23.662Z,46.08
2023-04-07T05:08:56.455Z,45.79
2023-04-07T05:11:30.521Z,45.38
2023-04-07T05:14:02.567Z,45.51
2023-04-07T05:16:34.987Z,44.89
2023-04-07T05:19:08.443Z,44.81
2023-04-07T05:21:41.072Z,44.22
2023-04-07T05:24:14.724Z,44.10
2023-04-07T05:26:48.499Z,44.17
2023-04-07T05:29:21.123Z,44.09
2023-04-07T05:31:53.406Z,43.61
2023-04-07T05:34:26.998Z,43.25
2023-04-07T05:37:00.127Z,42.87
2023-04-07T05:39:33.188Z,42.75
2023-04-07T05:42:06.713Z,42.50
2023-04-07T05:44:40.765Z,42.32
2023-04-07T05:47:12.864Z,42.25
2023-04-07T05:49:48.815Z,41.75
2023-04-07T05:52:21.201Z,41.70
2023-04-07T05:54:55.537Z,41.39
2023-04-07T05:57:30.185Z,40.24
2023-04-07T06:00:02.569Z,38.56
2023-04-07T06:02:35.998Z,37.53
2023-04-07T06:05:10.149Z,36.51
2023-04-07T06:07:43.221Z,35.89
2023-04-07T06:10:16.243Z,34.87
2023-04-07T06:12:49.367Z,33.35
2023-04-07T06:15:21.286Z,35.65
2023-04-07T06:17:53.403Z,31.69
2023-04-07T06:20:27.329Z,31.05
2023-04-07T06:22:59.918Z,30.14
2023-04-07T06:25:32.082Z,29.85
2023-04-07T06:28:06.935Z,29.57
2023-04-07T06:30:39.044Z,29.23
2023-04-07T06:33:12.695Z,28.94
2023-04-07T06:35:45.087Z,28.63
2023-04-07T06:38:17.918Z,28.88
2023-04-07T06:40:50.180Z,29.38
2023-04-07T06:43:22.691Z,28.41
2023-04-07T06:46:02.693Z,27.19
2023-04-07T06:48:34.931Z,25.87
2023-04-07T06:51:07.179Z,24.72
2023-04-07T06:53:39.724Z,23.45
2023-04-07T06:56:12.849Z,21.83
2023-04-07T06:58:44.914Z,21.07
2023-04-07T07:01:17.570Z,20.90
2023-04-07T07:03:50.548Z,20.75
2023-04-07T07:06:23.331Z,21.09
2023-04-07T07:08:55.915Z,21.10
2023-04-07T07:11:28.123Z,21.49
2023-04-07T07:14:00.598Z,22.28
2023-04-07T07:16:32.741Z,22.59
2023-04-07T07:19:04.972Z,23.39
2023-04-07T07:21:37.678Z,24.72
2023-04-07T07:24:10.388Z,25.70
2023-04-07T07:26:44.499Z,26.61
2023-04-07T07:29:16.555Z,27.47
2023-04-07T07:31:48.686Z,28.17
2023-04-07T07:34:21.601Z,29.43
2023-04-07T07:36:54.171Z,29.94
2023-04-07T07:39:26.098Z,30.14
2023-04-07T07:41:58.299Z,30.21
2023-04-07T07:44:32.521Z,30.58
2023-04-07T07:47:05.026Z,30.98
2023-04-07T07:49:37.785Z,31.30
2023-04-07T07:52:11.062Z,31.16
2023-04-07T07:54:43.625Z,31.82
2023-04-07T07:57:16.314Z,31.87
2023-04-07T07:59:49.022Z,32.70
2023-04-07T08:02:21.594Z,32.61
2023-04-07T08:04:53.897Z,32.61
2023-04-07T08:07:26.080Z,31.75
2023-04-07T08:09:58.207Z,32.73
2023-04-07T08:12:30.280Z,32.17
2023-04-07T08:15:02.976Z,32.70
2023-04-07T08:17:35.125Z,31.49
2023-04-07T08:20:08.609Z,30.92
2023-04-07T08:22:40.718Z,32.04
2023-04-07T08:25:13.098Z,30.77
2023-04-07T08:27:46.780Z,31.03
2023-04-07T08:30:20.707Z,31.43
2023-04-07T08:32:53.420Z,31.25
2023-04-07T08:35:25.622Z,31.47
2023-04-07T08:37:57.831Z,32.39
2023-04-07T08:40:29.986Z,31.43
2023-04-07T08:43:05.163Z,30.96
2023-04-07T08:45:42.687Z,30.19
2023-04-07T08:48:23.529Z,30.46
2023-04-07T08:50:56.279Z,29.88
2023-04-07T08:53:31.556Z,30.24
2023-04-07T08:56:03.749Z,30.20
2023-04-07T08:58:38.753Z,30.94
2023-04-07T09:01:11.685Z,30.39
2023-04-07T09:03:46.834Z,30.06
2023-04-07T09:06:19.337Z,29.81
2023-04-07T09:08:51.763Z,29.80
2023-04-07T09:11:24.055Z,29.61
2023-04-07T09:13:57.142Z,29.41
2023-04-07T09:16:32.360Z,29.25
2023-04-07T09:19:04.687Z,29.53
2023-04-07T09:21:53.574Z,29.36
2023-04-07T09:24:28.173Z,29.53
2023-04-07T09:27:20.402Z,29.53
2023-04-07T09:29:54.060Z,29.32
2023-04-07T09:32:39.546Z,28.97
2023-04-07T09:35:13.020Z,29.09
2023-04-07T09:37:45.640Z,28.84
2023-04-07T09:40:20.759Z,28.86
2023-04-07T09:42:52.790Z,28.43
2023-04-07T09:48:05.828Z,27.72
2023-04-07T09:50:41.576Z,28.66
2023-04-07T09:53:14.499Z,27.56
2023-04-07T09:55:47.262Z,27.35
2023-04-07T09:58:20.655Z,27.71
2023-04-07T10:00:54.082Z,27.96
2023-04-07T10:03:26.364Z,27.67
2023-04-07T10:05:58.804Z,27.76
2023-04-07T10:08:34.568Z,27.69
2023-04-07T10:11:08.267Z,27.77
2023-04-07T10:13:42.147Z,27.42
2023-04-07T10:16:14.321Z,28.50
2023-04-07T10:18:47.458Z,27.94
2023-04-07T10:21:19.889Z,28.53
2023-04-07T10:24:03.459Z,27.55
2023-04-07T10:26:40.023Z,27.37
2023-04-07T10:29:15.473Z,26.76
2023-04-07T10:31:48.057Z,27.37
2023-04-07T10:34:22.967Z,26.72
2023-04-07T10:37:14.729Z,27.20
2023-04-07T10:39:48.906Z,26.79
2023-04-07T10:42:41.903Z,27.39
2023-04-07T10:45:14.372Z,28.00
2023-04-07T10:48:04.730Z,28.22
2023-04-07T10:50:37.646Z,26.73
2023-04-07T10:53:12.885Z,25.79
2023-04-07T10:55:46.491Z,25.84
2023-04-07T10:58:26.100Z,25.79
2023-04-07T11:01:13.108Z,25.25
2023-04-07T11:03:57.189Z,24.87
2023-04-07T11:06:29.804Z,26.06
2023-04-07T11:09:02.041Z,25.45
2023-04-07T11:11:39.252Z,25.52
2023-04-07T11:14:11.831Z,24.87
2023-04-07T11:16:45.992Z,25.04
2023-04-07T11:19:18.516Z,25.06
2023-04-07T11:21:51.076Z,25.18
2023-04-07T11:24:37.800Z,25.10
2023-04-07T11:27:16.957Z,25.14
2023-04-07T11:29:49.375Z,25.45
2023-04-07T11:32:28.892Z,25.07
2023-04-07T11:35:01.731Z,25.27
2023-04-07T11:37:34.183Z,25.31
2023-04-07T11:40:07.126Z,24.94
2023-04-07T11:42:40.784Z,24.81
2023-04-07T11:45:20.824Z,24.77
2023-04-07T11:47:53.408Z,24.76
2023-04-07T11:50:43.974Z,25.10
2023-04-07T11:53:17.581Z,24.42
2023-04-07T11:55:49.906Z,24.53
2023-04-07T11:58:22.039Z,24.45
2023-04-07T12:00:58.472Z,24.27
2023-04-07T12:03:30.802Z,24.60
2023-04-07T12:06:07.781Z,24.37
2023-04-07T12:08:44.920Z,24.46
2023-04-07T12:11:17.159Z,24.27
2023-04-07T12:13:49.763Z,24.10
2023-04-07T12:16:23.407Z,24.05
2023-04-07T12:18:55.624Z,23.90
2023-04-07T12:21:27.767Z,23.36
2023-04-07T12:23:59.818Z,22.99
2023-04-07T12:26:32.032Z,21.07
2023-04-07T12:29:07.195Z,19.26
2023-04-07T12:31:39.914Z,17.45
2023-04-07T12:34:12.624Z,16.20
2023-04-07T12:36:45.238Z,15.15
2023-04-07T12:39:17.648Z,14.05
2023-04-07T12:41:51.746Z,13.21
2023-04-07T12:44:24.265Z,12.63
2023-04-07T12:46:56.382Z,11.84
2023-04-07T12:49:29.240Z,11.08
2023-04-07T12:52:02.141Z,10.52
2023-04-07T12:54:34.523Z,9.95
2023-04-07T12:57:06.591Z,9.83
2023-04-07T12:59:39.111Z,9.51
2023-04-07T13:02:14.037Z,9.32
2023-04-07T13:04:47.083Z,9.54
2023-04-07T13:07:20.478Z,9.28
2023-04-07T13:09:52.760Z,9.21
2023-04-07T13:12:25.990Z,9.39
2023-04-07T13:15:00.649Z,9.09
2023-04-07T13:17:35.599Z,9.33
2023-04-07T13:20:08.256Z,9.08
2023-04-07T13:22:49.279Z,11.18
2023-04-07T13:25:14.634Z,8.94
2023-04-07T13:27:46.840Z,8.65
2023-04-07T13:30:22.692Z,8.21
2023-04-07T13:32:54.370Z,7.83
2023-04-07T13:35:26.674Z,7.48
2023-04-07T13:37:59.049Z,7.40
2023-04-07T13:40:31.318Z,7.10
2023-04-07T13:43:03.419Z,6.90
2023-04-07T13:45:36.583Z,6.87
2023-04-07T13:48:09.521Z,6.68
2023-04-07T13:50:41.757Z,6.66
2023-04-07T13:53:13.959Z,6.73
2023-04-07T13:55:46.514Z,6.79
2023-04-07T13:58:19.221Z,6.86
2023-04-07T14:00:51.631Z,7.18
2023-04-07T14:03:24.470Z,6.98
2023-04-07T14:05:58.339Z,7.11
2023-04-07T14:08:30.722Z,7.15
2023-04-07T14:11:03.649Z,7.01
2023-04-07T14:13:36.519Z,6.99
2023-04-07T14:16:09.450Z,7.05
2023-04-07T14:18:42.555Z,7.15
2023-04-07T14:21:15.409Z,7.13
2023-04-07T14:23:48.050Z,7.24
2023-04-07T14:26:21.560Z,7.36
2023-04-07T14:28:54.159Z,7.59
2023-04-07T14:31:26.479Z,7.83
2023-04-07T14:33:58.849Z,8.22
2023-04-07T14:36:32.979Z,8.30
2023-04-07T14:39:04.921Z,8.66
2023-04-07T14:41:37.492Z,8.86
2023-04-07T14:44:09.567Z,9.46
2023-04-07T14:46:42.718Z,10.37
2023-04-07T14:49:16.519Z,11.82
2023-04-07T14:51:48.871Z,13.22
2023-04-07T14:54:21.734Z,14.56
2023-04-07T14:56:54.075Z,15.77
2023-04-07T14:59:26.644Z,17.11
2023-04-07T15:02:00.493Z,18.35
2023-04-07T15:04:33.287Z,19.37
2023-04-07T15:07:06.144Z,20.58
2023-04-07T15:09:39.079Z,21.22
2023-04-07T15:12:11.483Z,22.18
2023-04-07T15:14:46.293Z,23.15
2023-04-07T15:17:18.980Z,23.80
2023-04-07T15:19:51.455Z,24.19
2023-04-07T15:22:23.909Z,24.60
2023-04-07T15:24:56.174Z,25.35
2023-04-07T15:27:28.914Z,25.58
2023-04-07T15:30:01.344Z,25.82
2023-04-07T15:32:34.268Z,26.30
2023-04-07T15:35:07.187Z,26.84
2023-04-07T15:37:39.441Z,26.48
2023-04-07T15:40:12.045Z,26.92
2023-04-07T15:42:44.429Z,27.28
2023-04-07T15:45:16.500Z,27.66
2023-04-07T15:47:48.786Z,28.04
2023-04-07T15:50:21.544Z,28.52
2023-04-07T15:52:53.788Z,28.56
2023-04-07T15:55:26.000Z,29.24
2023-04-07T15:57:58.563Z,29.25
2023-04-07T16:00:32.937Z,29.66
2023-04-07T16:03:05.852Z,29.68
2023-04-07T16:05:39.218Z,30.19
2023-04-07T16:08:13.679Z,30.68
2023-04-07T16:10:46.035Z,30.23
2023-04-07T16:13:18.112Z,30.67
2023-04-07T16:15:50.647Z,30.77
2023-04-07T16:18:23.252Z,30.86
2023-04-07T16:20:55.490Z,31.21
2023-04-07T16:23:28.069Z,31.52
2023-04-07T16:26:00.171Z,32.01
2023-04-07T16:28:44.800Z,31.91
2023-04-07T16:31:17.046Z,31.86
2023-04-07T16:33:52.772Z,32.10
2023-04-07T16:36:25.153Z,32.61
2023-04-07T16:38:57.775Z,32.58
2023-04-07T16:41:30.054Z,32.90
2023-04-07T16:44:02.631Z,33.29
2023-04-07T16:46:34.822Z,33.38
2023-04-07T16:49:07.005Z,33.76
2023-04-07T16:51:39.158Z,33.71
2023-04-07T16:54:11.439Z,33.69
2023-04-07T16:56:43.543Z,33.58
2023-04-07T16:59:16.380Z,34.08
2023-04-07T17:01:48.423Z,33.97
2023-04-07T17:04:20.740Z,34.03
2023-04-07T17:06:53.150Z,34.13
2023-04-07T17:09:25.733Z,34.09
2023-04-07T17:11:57.971Z,34.19
2023-04-07T17:14:30.824Z,34.30
2023-04-07T17:17:03.586Z,34.78
2023-04-07T17:19:36.173Z,34.32
2023-04-07T17:22:08.483Z,34.63
2023-04-07T17:24:40.556Z,34.87
2023-04-07T17:27:12.735Z,34.71
2023-04-07T17:29:44.947Z,35.35
2023-04-07T17:32:17.166Z,34.89
2023-04-07T17:34:49.396Z,34.61
2023-04-07T17:37:21.321Z,34.75
2023-04-07T17:39:53.656Z,35.26
2023-04-07T17:42:26.224Z,35.36
2023-04-07T17:44:58.399Z,35.49
2023-04-07T17:47:30.864Z,35.40
2023-04-07T17:50:03.129Z,35.78
2023-04-07T17:52:35.504Z,35.86
2023-04-07T17:55:08.751Z,35.89
2023-04-07T17:57:42.551Z,36.09
2023-04-07T18:00:15.188Z,35.76
2023-04-07T18:02:47.706Z,35.76
2023-04-07T18:05:20.615Z,35.69
2023-04-07T18:07:55.090Z,35.82
2023-04-07T18:10:28.249Z,36.05
2023-04-07T18:13:00.662Z,36.01
2023-04-07T18:15:33.440Z,35.98
2023-04-07T18:18:05.838Z,35.73
2023-04-07T18:20:38.088Z,35.69
2023-04-07T18:23:10.711Z,35.70
2023-04-07T18:25:42.956Z,36.39
2023-04-07T18:28:15.268Z,35.74
2023-04-07T18:30:47.439Z,36.11
2023-04-07T18:33:19.761Z,36.23
2023-04-07T18:35:51.908Z,35.95
2023-04-07T18:38:23.826Z,36.11
2023-04-07T18:40:56.362Z,36.10
2023-04-07T18:43:28.432Z,36.28
2023-04-07T18:46:00.877Z,36.33
2023-04-07T18:48:33.414Z,36.66
2023-04-07T18:51:05.951Z,36.51
2023-04-07T18:53:38.749Z,36.35
2023-04-07T18:56:10.800Z,36.47
2023-04-07T18:58:44.337Z,36.80
2023-04-07T19:01:16.853Z,36.72
2023-04-07T19:03:49.353Z,36.44
2023-04-07T19:06:22.242Z,36.78
2023-04-07T19:08:54.813Z,36.53
2023-04-07T19:11:27.233Z,36.75
2023-04-07T19:13:59.376Z,36.72
2023-04-07T19:16:32.418Z,36.87
2023-04-07T19:19:05.238Z,36.79
2023-04-07T19:21:37.300Z,36.96
2023-04-07T19:24:09.320Z,37.00
2023-04-07T19:26:41.380Z,37.02
2023-04-07T19:29:13.437Z,36.99
2023-04-07T19:31:45.731Z,37.11
2023-04-07T19:34:17.692Z,37.00
2023-04-07T19:36:49.798Z,37.13
2023-04-07T19:39:21.820Z,36.84
2023-04-07T19:41:53.775Z,37.23
2023-04-07T19:44:26.891Z,37.32
2023-04-07T19:46:59.184Z,37.45
2023-04-07T19:49:31.411Z,36.69
2023-04-07T19:52:04.354Z,37.00
2023-04-07T19:54:36.550Z,37.02
2023-04-07T19:57:08.833Z,36.98
2023-04-07T19:59:41.188Z,37.33
2023-04-07T20:02:13.323Z,37.39
2023-04-07T20:04:46.040Z,37.13
2023-04-07T20:07:18.493Z,37.67
2023-04-07T20:09:52.209Z,37.76
2023-04-07T20:12:24.792Z,37.74
2023-04-07T20:14:56.944Z,37.66
2023-04-07T20:17:29.186Z,37.88
2023-04-07T20:20:02.013Z,37.75
2023-04-07T20:22:36.845Z,38.07
2023-04-07T20:25:09.759Z,37.81
2023-04-07T20:27:44.063Z,37.82
2023-04-07T20:30:16.662Z,37.94
2023-04-07T20:32:49.507Z,38.25
2023-04-07T20:35:22.087Z,38.10
2023-04-07T20:37:54.544Z,38.67
2023-04-07T20:40:27.803Z,38.87
2023-04-07T20:43:00.506Z,38.36
2023-04-07T20:45:34.427Z,38.41
2023-04-07T20:48:06.990Z,38.27
2023-04-07T20:50:39.858Z,38.17
2023-04-07T20:53:12.390Z,38.33
2023-04-07T20:55:44.459Z,38.48
2023-04-07T20:58:17.957Z,38.65
2023-04-07T21:00:51.699Z,38.83
2023-04-07T21:03:28.117Z,38.39
2023-04-07T21:06:00.503Z,38.73
2023-04-07T21:08:32.795Z,38.75
2023-04-07T21:11:04.877Z,38.98
2023-04-07T21:13:36.961Z,38.77
2023-04-07T21:16:09.207Z,38.69
2023-04-07T21:18:42.837Z,38.68
2023-04-07T21:21:16.060Z,38.70
2023-04-07T21:23:49.150Z,38.72
2023-04-07T21:26:21.210Z,38.53
2023-04-07T21:28:53.653Z,38.26
2023-04-07T21:31:26.260Z,38.34
2023-04-07T21:33:58.389Z,38.27
2023-04-07T21:36:32.194Z,38.37
2023-04-07T21:39:04.789Z,38.62
2023-04-07T21:41:37.301Z,38.74
2023-04-07T21:44:11.266Z,38.61
2023-04-07T21:46:43.385Z,38.20
2023-04-07T21:49:15.764Z,38.49
2023-04-07T21:51:47.996Z,38.37
2023-04-07T21:54:20.194Z,38.35
2023-04-07T21:56:52.844Z,38.61
2023-04-07T21:59:25.037Z,38.46
2023-04-07T22:01:57.903Z,38.65
2023-04-07T22:04:30.780Z,38.65
2023-04-07T22:07:04.201Z,38.64
2023-04-07T22:09:37.283Z,38.60
2023-04-07T22:12:09.724Z,38.71
2023-04-07T22:14:43.009Z,38.92
2023-04-07T22:17:15.277Z,38.93
2023-04-07T22:19:47.572Z,39.17
2023-04-07T22:22:20.230Z,39.05
2023-04-07T22:24:52.457Z,38.82
2023-04-07T22:27:24.852Z,38.58
2023-04-07T22:29:57.267Z,38.63
2023-04-07T22:32:29.501Z,38.56
2023-04-07T22:35:01.530Z,38.59
2023-04-07T22:37:33.650Z,38.81
2023-04-07T22:40:06.436Z,38.86
2023-04-07T22:42:40.352Z,39.08
2023-04-07T22:45:12.957Z,38.83
2023-04-07T22:47:46.137Z,38.83
2023-04-07T22:50:18.268Z,39.05
2023-04-07T22:52:50.859Z,39.37
2023-04-07T22:55:22.899Z,39.47
2023-04-07T22:57:55.141Z,39.35
2023-04-07T23:00:28.281Z,39.62
2023-04-07T23:03:00.482Z,39.85
2023-04-07T23:05:34.277Z,39.67
2023-04-07T23:08:06.626Z,39.67
2023-04-07T23:10:42.308Z,39.87
2023-04-07T23:13:15.996Z,39.92
2023-04-07T23:15:49.107Z,39.90
2023-04-07T23:18:22.854Z,39.89
2023-04-07T23:20:55.187Z,39.94
2023-04-07T23:23:27.502Z,40.09
2023-04-07T23:26:01.672Z,40.05
2023-04-07T23:28:34.106Z,40.09
2023-04-07T23:31:07.792Z,40.26
2023-04-07T23:33:39.967Z,40.21
2023-04-07T23:36:12.206Z,40.12
2023-04-07T23:38:44.512Z,40.37
2023-04-07T23:41:18.238Z,40.59
2023-04-07T23:43:50.458Z,40.39
2023-04-07T23:46:25.035Z,40.70
2023-04-07T23:49:06.989Z,40.74
2023-04-07T23:51:42.573Z,40.67
2023-04-07T23:54:14.895Z,40.78
2023-04-07T23:56:49.805Z,40.86
2023-04-07T23:59:26.784Z,40.82
